createdAt,value
2024-01-28T00:01:09.322Z,103060.16
2024-01-28T00:02:13.353Z,103055.78
2024-01-28T00:03:23.484Z,103048.81
2024-01-28T00:04:32.249Z,103047.94
2024-01-28T00:05:41.534Z,103045.34
2024-01-28T00:06:45.486Z,103048.78
2024-01-28T00:07:52.173Z,103049.66
2024-01-28T00:08:59.120Z,103050.50
2024-01-28T00:10:05.745Z,103053.09
2024-01-28T00:11:09.681Z,103052.22
2024-01-28T00:12:16.319Z,103050.47
2024-01-28T00:13:25.415Z,103050.47
2024-01-28T00:14:34.435Z,103042.63
2024-01-28T00:15:41.403Z,103047.81
2024-01-28T00:16:48.049Z,103049.53
2024-01-28T00:17:55.047Z,103048.66
2024-01-28T00:19:02.209Z,103049.53
2024-01-28T00:20:10.650Z,103041.69
2024-01-28T00:21:16.012Z,103048.63
2024-01-28T00:22:22.134Z,103052.06
2024-01-28T00:23:26.058Z,103050.34
2024-01-28T00:24:30.145Z,103046.88
2024-01-28T00:25:35.846Z,103049.44
2024-01-28T00:26:41.267Z,103050.28
2024-01-28T00:27:48.581Z,103048.59
2024-01-28T00:28:52.722Z,103051.19
2024-01-28T00:29:59.237Z,103050.34
2024-01-28T00:31:10.254Z,103055.53
2024-01-28T00:32:19.301Z,103051.19
2024-01-28T00:33:25.833Z,103048.59
2024-01-28T00:34:32.215Z,103046.88
2024-01-28T00:35:39.206Z,103046.03
2024-01-28T00:36:47.243Z,103051.22
2024-01-28T00:37:51.628Z,103043.41
2024-01-28T00:39:00.600Z,103046.00
2024-01-28T00:40:09.584Z,103044.25
2024-01-28T00:41:27.524Z,103048.53
2024-01-28T00:42:33.694Z,103048.53
2024-01-28T00:43:47.959Z,103046.81
2024-01-28T00:44:54.921Z,103050.28
2024-01-28T00:46:04.498Z,103059.81
2024-01-28T00:47:09.024Z,103059.81
2024-01-28T00:48:20.717Z,103050.34
2024-01-28T00:49:30.975Z,103056.41
2024-01-28T00:50:44.881Z,103049.47
2024-01-28T00:51:48.939Z,103055.56
2024-01-28T00:52:57.261Z,103058.16
2024-01-28T00:54:01.638Z,103054.72
2024-01-28T00:55:12.598Z,103052.13
2024-01-28T00:56:18.872Z,103056.47
2024-01-28T00:57:25.543Z,103048.66
2024-01-28T00:58:34.908Z,103049.53
2024-01-28T00:59:40.844Z,103048.63
2024-01-28T01:00:47.614Z,103051.22
2024-01-28T01:01:51.695Z,103044.28
2024-01-28T01:03:07.054Z,103048.63
2024-01-28T01:04:10.283Z,103049.47
2024-01-28T01:05:17.413Z,103053.78
2024-01-28T01:06:24.095Z,103058.06
2024-01-28T01:07:31.263Z,103058.03
2024-01-28T01:08:38.812Z,103061.47
2024-01-28T01:09:46.231Z,103056.28
2024-01-28T01:10:50.229Z,103057.13
2024-01-28T01:12:00.304Z,103053.69
2024-01-28T01:13:06.563Z,103054.53
2024-01-28T01:14:16.063Z,103053.69
2024-01-28T01:15:28.186Z,103049.34
2024-01-28T01:16:35.161Z,103050.19
2024-01-28T01:17:43.329Z,103053.63
2024-01-28T01:18:52.323Z,103053.63
2024-01-28T01:19:59.277Z,103056.22
2024-01-28T01:21:07.265Z,103053.63
2024-01-28T01:22:18.726Z,103057.94
2024-01-28T01:23:31.406Z,103058.78
2024-01-28T01:24:39.963Z,103051.84
2024-01-28T01:25:49.239Z,103052.69
2024-01-28T01:26:55.944Z,103052.69
2024-01-28T01:28:07.705Z,103046.63
2024-01-28T01:29:11.803Z,103048.34
2024-01-28T01:30:21.965Z,103053.53
2024-01-28T01:31:26.784Z,103059.56
2024-01-28T01:32:37.194Z,103059.59
2024-01-28T01:33:47.706Z,103055.28
2024-01-28T01:34:57.703Z,103053.59
2024-01-28T01:36:03.205Z,103052.69
2024-01-28T01:37:10.316Z,103055.34
2024-01-28T01:38:16.859Z,103060.53
2024-01-28T01:39:26.494Z,103055.34
2024-01-28T01:40:33.393Z,103058.81
2024-01-28T01:41:42.538Z,103061.44
2024-01-28T01:42:49.359Z,103058.84
2024-01-28T01:44:00.801Z,103057.97
2024-01-28T01:45:06.534Z,103057.97
2024-01-28T01:46:14.282Z,103062.28
2024-01-28T01:47:21.403Z,103069.22
2024-01-28T01:48:28.504Z,103074.41
2024-01-28T01:49:38.343Z,103060.56
2024-01-28T01:50:48.188Z,103065.75
2024-01-28T01:51:55.349Z,103070.97
2024-01-28T01:53:01.753Z,103065.78
2024-01-28T01:54:11.985Z,103074.41
2024-01-28T01:55:19.007Z,103066.66
2024-01-28T01:56:28.403Z,103060.59
2024-01-28T01:57:35.347Z,103065.78
2024-01-28T01:58:40.061Z,103062.31
2024-01-28T01:59:56.091Z,103065.78
2024-01-28T02:01:02.309Z,103063.19
2024-01-28T02:02:15.099Z,103062.31
2024-01-28T02:03:22.312Z,103062.31
2024-01-28T02:04:29.176Z,103064.88
2024-01-28T02:05:33.538Z,103057.97
2024-01-28T02:06:39.325Z,103056.22
2024-01-28T02:07:46.961Z,103059.69
2024-01-28T02:08:58.863Z,103057.94
2024-01-28T02:10:11.056Z,103053.59
2024-01-28T02:11:21.095Z,103059.69
2024-01-28T02:12:31.830Z,103058.78
2024-01-28T02:13:41.199Z,103056.19
2024-01-28T02:14:45.155Z,103056.19
2024-01-28T02:15:54.946Z,103051.78
2024-01-28T02:17:02.754Z,103055.25
2024-01-28T02:18:10.194Z,103051.78
2024-01-28T02:19:14.289Z,103052.63
2024-01-28T02:20:22.204Z,103045.75
2024-01-28T02:21:28.375Z,103046.59
2024-01-28T02:22:35.747Z,103047.47
2024-01-28T02:23:44.522Z,103047.50
2024-01-28T02:24:51.222Z,103045.78
2024-01-28T02:25:57.384Z,103042.31
2024-01-28T02:27:07.897Z,103053.53
2024-01-28T02:28:12.109Z,103050.94
2024-01-28T02:29:18.908Z,103044.00
2024-01-28T02:30:24.011Z,103055.25
2024-01-28T02:31:30.645Z,103054.38
2024-01-28T02:32:34.942Z,103056.97
2024-01-28T02:33:41.677Z,103053.50
2024-01-28T02:34:46.440Z,103038.78
2024-01-28T02:35:52.985Z,103048.31
2024-01-28T02:37:05.990Z,103044.81
2024-01-28T02:38:15.818Z,103043.97
2024-01-28T02:39:24.974Z,103040.50
2024-01-28T02:40:35.175Z,103039.63
2024-01-28T02:41:47.516Z,103044.81
2024-01-28T02:42:54.282Z,103038.75
2024-01-28T02:44:03.473Z,103038.72
2024-01-28T02:45:15.012Z,103040.47
2024-01-28T02:46:21.098Z,103042.16
2024-01-28T02:47:30.251Z,103045.63
2024-01-28T02:48:33.417Z,103036.97
2024-01-28T02:49:40.001Z,103040.47
2024-01-28T02:50:44.218Z,103041.31
2024-01-28T02:51:51.254Z,103043.91
2024-01-28T02:52:55.585Z,103047.34
2024-01-28T02:54:05.671Z,103043.03
2024-01-28T02:55:15.718Z,103040.44
2024-01-28T02:56:24.664Z,103042.16
2024-01-28T02:57:32.901Z,103040.47
2024-01-28T02:58:42.218Z,103039.59
2024-01-28T02:59:48.228Z,103042.22
2024-01-28T03:00:54.962Z,103039.63
2024-01-28T03:02:01.557Z,103043.91
2024-01-28T03:03:13.074Z,103042.19
2024-01-28T03:04:17.665Z,103041.31
2024-01-28T03:05:25.391Z,103035.28
2024-01-28T03:06:31.806Z,103043.03
2024-01-28T03:07:38.673Z,103038.66
2024-01-28T03:08:46.077Z,103038.66
2024-01-28T03:09:52.679Z,103038.66
2024-01-28T03:11:00.107Z,103037.81
2024-01-28T03:12:07.955Z,103041.31
2024-01-28T03:13:14.620Z,103038.72
2024-01-28T03:14:21.460Z,103043.00
2024-01-28T03:15:25.803Z,103037.81
2024-01-28T03:16:32.484Z,103038.66
2024-01-28T03:17:41.691Z,103043.84
2024-01-28T03:18:54.000Z,103043.84
2024-01-28T03:19:58.104Z,103044.69
2024-01-28T03:21:10.775Z,103041.22
2024-01-28T03:22:17.258Z,103036.88
2024-01-28T03:23:27.362Z,103040.34
2024-01-28T03:24:31.455Z,103044.16
2024-01-28T03:25:40.443Z,103045.41
2024-01-28T03:26:46.979Z,103049.19
2024-01-28T03:27:54.764Z,103041.53
2024-01-28T03:28:58.625Z,103045.03
2024-01-28T03:30:10.349Z,103045.00
2024-01-28T03:31:17.414Z,103036.25
2024-01-28T03:32:27.100Z,103036.22
2024-01-28T03:33:34.570Z,103031.91
2024-01-28T03:34:43.530Z,103032.81
2024-01-28T03:35:47.517Z,103038.91
2024-01-28T03:36:57.049Z,103029.41
2024-01-28T03:38:01.743Z,103032.88
2024-01-28T03:39:11.361Z,103029.41
2024-01-28T03:40:18.470Z,103023.31
2024-01-28T03:41:25.084Z,103018.97
2024-01-28T03:42:34.373Z,103025.91
2024-01-28T03:43:40.961Z,103020.66
2024-01-28T03:44:47.478Z,103024.09
2024-01-28T03:45:51.567Z,103027.53
2024-01-28T03:47:01.587Z,103020.53
2024-01-28T03:48:06.845Z,103018.78
2024-01-28T03:49:19.313Z,103023.91
2024-01-28T03:50:26.459Z,103024.69
2024-01-28T03:51:33.068Z,103029.84
2024-01-28T03:52:39.756Z,103028.97
2024-01-28T03:53:47.098Z,103028.94
2024-01-28T03:54:53.705Z,103028.91
2024-01-28T03:56:00.647Z,103028.00
2024-01-28T03:57:05.533Z,103030.59
2024-01-28T03:58:14.885Z,103031.44
2024-01-28T03:59:18.056Z,103029.69
2024-01-28T04:00:30.277Z,103039.19
2024-01-28T04:01:34.969Z,103033.94
2024-01-28T04:02:41.735Z,103034.75
2024-01-28T04:03:45.740Z,103034.66
2024-01-28T04:04:54.472Z,103038.09
2024-01-28T04:06:03.051Z,103034.56
2024-01-28T04:07:11.990Z,103038.81
2024-01-28T04:08:17.780Z,103030.13
2024-01-28T04:09:26.855Z,103030.97
2024-01-28T04:10:33.245Z,103037.03
2024-01-28T04:11:39.926Z,103037.00
2024-01-28T04:12:44.177Z,103035.25
2024-01-28T04:13:55.969Z,103034.31
2024-01-28T04:14:59.793Z,103028.19
2024-01-28T04:16:08.464Z,103034.19
2024-01-28T04:17:17.240Z,103031.56
2024-01-28T04:18:23.920Z,103036.72
2024-01-28T04:19:30.617Z,103026.34
2024-01-28T04:20:36.461Z,103032.38
2024-01-28T04:21:42.299Z,103033.19
2024-01-28T04:22:48.939Z,103034.09
2024-01-28T04:23:53.234Z,103029.75
2024-01-28T04:24:57.346Z,103027.16
2024-01-28T04:26:03.911Z,103025.41
2024-01-28T04:27:07.854Z,103019.31
2024-01-28T04:28:14.370Z,103022.75
2024-01-28T04:29:21.016Z,103025.41
2024-01-28T04:30:27.750Z,103027.88
2024-01-28T04:31:31.823Z,103032.06
2024-01-28T04:32:40.710Z,103029.44
2024-01-28T04:33:47.481Z,103033.78
2024-01-28T04:34:55.833Z,103038.91
2024-01-28T04:36:02.300Z,103045.69
2024-01-28T04:37:11.768Z,103035.13
2024-01-28T04:38:15.768Z,103043.78
2024-01-28T04:39:25.494Z,103044.59
2024-01-28T04:40:31.720Z,103036.78
2024-01-28T04:41:38.339Z,103042.81
2024-01-28T04:42:44.926Z,103036.72
2024-01-28T04:43:53.858Z,103037.34
2024-01-28T04:45:00.597Z,103032.16
2024-01-28T04:46:07.552Z,103035.56
2024-01-28T04:47:11.530Z,103033.78
2024-01-28T04:48:18.220Z,103032.91
2024-01-28T04:49:24.990Z,103038.97
2024-01-28T04:50:28.976Z,103033.81
2024-01-28T04:51:35.543Z,103040.69
2024-01-28T04:52:42.238Z,103045.88
2024-01-28T04:53:48.704Z,103047.63
2024-01-28T04:54:55.150Z,103044.19
2024-01-28T04:56:01.730Z,103050.25
2024-01-28T04:57:08.748Z,103043.25
2024-01-28T04:58:17.840Z,103036.31
2024-01-28T04:59:21.940Z,103038.97
2024-01-28T05:00:31.136Z,103043.25
2024-01-28T05:01:36.081Z,103045.00
2024-01-28T05:02:43.049Z,103044.16
2024-01-28T05:03:46.992Z,103048.44
2024-01-28T05:04:55.879Z,103053.59
2024-01-28T05:06:05.881Z,103049.22
2024-01-28T05:07:11.035Z,103060.41
2024-01-28T05:08:17.523Z,103061.22
2024-01-28T05:09:21.942Z,103059.53
2024-01-28T05:10:28.868Z,103062.06
2024-01-28T05:11:32.845Z,103060.31
2024-01-28T05:12:39.377Z,103063.81
2024-01-28T05:13:44.829Z,103060.28
2024-01-28T05:14:54.828Z,103065.41
2024-01-28T05:16:05.238Z,103064.44
2024-01-28T05:17:11.729Z,103063.53
2024-01-28T05:18:15.734Z,103058.19
2024-01-28T05:19:22.430Z,103059.09
2024-01-28T05:20:28.931Z,103065.13
2024-01-28T05:21:37.915Z,103064.19
2024-01-28T05:22:42.181Z,103069.38
2024-01-28T05:23:51.930Z,103069.38
2024-01-28T05:24:56.762Z,103071.97
2024-01-28T05:26:05.632Z,103071.03
2024-01-28T05:27:10.430Z,103075.28
2024-01-28T05:28:17.050Z,103073.50
2024-01-28T05:29:20.961Z,103073.44
2024-01-28T05:30:24.948Z,103064.72
2024-01-28T05:31:34.315Z,103068.16
2024-01-28T05:32:38.367Z,103068.16
2024-01-28T05:33:49.073Z,103067.28
2024-01-28T05:34:56.505Z,103076.63
2024-01-28T05:36:03.100Z,103074.91
2024-01-28T05:37:07.027Z,103079.31
2024-01-28T05:38:15.958Z,103079.31
2024-01-28T05:39:22.385Z,103075.75
2024-01-28T05:40:29.140Z,103087.91
2024-01-28T05:41:35.573Z,103080.19
2024-01-28T05:42:42.167Z,103077.59
2024-01-28T05:43:46.109Z,103081.91
2024-01-28T05:44:52.658Z,103087.16
2024-01-28T05:45:56.670Z,103081.00
2024-01-28T05:47:08.699Z,103080.88
2024-01-28T05:48:12.944Z,103087.81
2024-01-28T05:49:19.698Z,103082.56
2024-01-28T05:50:25.800Z,103086.78
2024-01-28T05:51:35.573Z,103086.75
2024-01-28T05:52:41.818Z,103087.69
2024-01-28T05:53:48.321Z,103091.00
2024-01-28T05:54:54.100Z,103088.41
2024-01-28T05:56:00.149Z,103085.88
2024-01-28T05:57:04.426Z,103087.69
2024-01-28T05:58:10.737Z,103084.19
2024-01-28T05:59:18.272Z,103081.59
2024-01-28T06:00:22.503Z,103079.00
2024-01-28T06:01:29.105Z,103084.09
2024-01-28T06:02:35.761Z,103079.78
2024-01-28T06:03:44.832Z,103079.88
2024-01-28T06:04:48.876Z,103079.94
2024-01-28T06:05:57.068Z,103083.38
2024-01-28T06:07:01.547Z,103089.44
2024-01-28T06:08:09.834Z,103086.03
2024-01-28T06:09:16.166Z,103085.13
2024-01-28T06:10:22.694Z,103088.47
2024-01-28T06:11:29.329Z,103078.94
2024-01-28T06:12:35.466Z,103085.94
2024-01-28T06:13:44.211Z,103081.59
2024-01-28T06:14:50.623Z,103082.50
2024-01-28T06:15:57.308Z,103085.94
2024-01-28T06:17:05.078Z,103088.56
2024-01-28T06:18:13.993Z,103088.53
2024-01-28T06:19:18.750Z,103087.63
2024-01-28T06:20:25.485Z,103091.88
2024-01-28T06:21:29.502Z,103096.16
2024-01-28T06:22:36.222Z,103099.50
2024-01-28T06:23:40.456Z,103095.22
2024-01-28T06:24:47.182Z,103092.53
2024-01-28T06:25:53.502Z,103091.72
2024-01-28T06:27:00.109Z,103087.38
2024-01-28T06:28:04.428Z,103083.97
2024-01-28T06:29:12.505Z,103081.38
2024-01-28T06:30:19.355Z,103081.28
2024-01-28T06:31:25.910Z,103082.97
2024-01-28T06:32:29.303Z,103082.09
2024-01-28T06:33:38.563Z,103081.25
2024-01-28T06:34:42.708Z,103075.28
2024-01-28T06:35:51.516Z,103079.44
2024-01-28T06:36:58.506Z,103076.09
2024-01-28T06:38:08.914Z,103083.88
2024-01-28T06:39:12.955Z,103084.69
2024-01-28T06:40:20.040Z,103083.75
2024-01-28T06:41:24.055Z,103081.91
2024-01-28T06:42:33.560Z,103081.06
2024-01-28T06:43:39.918Z,103073.31
2024-01-28T06:44:46.464Z,103075.16
2024-01-28T06:45:52.726Z,103069.16
2024-01-28T06:46:59.276Z,103067.50
2024-01-28T06:48:03.709Z,103074.44
2024-01-28T06:49:14.426Z,103074.44
2024-01-28T06:50:21.965Z,103073.63
2024-01-28T06:51:29.421Z,103076.13
2024-01-28T06:52:33.412Z,103074.38
2024-01-28T06:53:40.762Z,103072.69
2024-01-28T06:54:47.189Z,103081.31
2024-01-28T06:55:54.115Z,103073.56
2024-01-28T06:57:00.867Z,103072.78
2024-01-28T06:58:09.922Z,103081.41
2024-01-28T06:59:13.862Z,103072.72
2024-01-28T07:00:24.078Z,103071.88
2024-01-28T07:01:28.106Z,103071.06
2024-01-28T07:02:37.316Z,103069.31
2024-01-28T07:03:41.776Z,103074.56
2024-01-28T07:04:50.979Z,103075.44
2024-01-28T07:05:57.123Z,103072.88
2024-01-28T07:07:04.021Z,103069.44
2024-01-28T07:08:09.250Z,103068.66
2024-01-28T07:09:18.974Z,103068.66
2024-01-28T07:10:28.258Z,103074.75
2024-01-28T07:11:36.441Z,103069.59
2024-01-28T07:12:41.353Z,103066.19
2024-01-28T07:13:47.945Z,103077.41
2024-01-28T07:14:51.802Z,103074.88
2024-01-28T07:16:01.349Z,103077.47
2024-01-28T07:17:05.438Z,103083.50
2024-01-28T07:18:12.046Z,103079.22
2024-01-28T07:19:16.115Z,103078.25
2024-01-28T07:20:22.900Z,103086.78
2024-01-28T07:21:30.184Z,103079.66
2024-01-28T07:22:34.828Z,103085.75
2024-01-28T07:23:48.052Z,103086.53
2024-01-28T07:24:52.315Z,103083.13
2024-01-28T07:25:58.808Z,103088.16
2024-01-28T07:27:02.843Z,103093.38
2024-01-28T07:28:09.861Z,103090.69
2024-01-28T07:29:19.647Z,103093.28
2024-01-28T07:30:29.147Z,103088.09
2024-01-28T07:31:36.785Z,103085.41
2024-01-28T07:32:43.631Z,103080.28
2024-01-28T07:33:54.999Z,103078.41
2024-01-28T07:35:01.918Z,103089.06
2024-01-28T07:36:09.625Z,103088.19
2024-01-28T07:37:16.187Z,103080.34
2024-01-28T07:38:25.643Z,103078.63
2024-01-28T07:39:51.492Z,103073.59
2024-01-28T07:41:00.496Z,103079.72
2024-01-28T07:42:10.595Z,103073.66
2024-01-28T07:46:02.669Z,103080.06
2024-01-28T07:47:12.086Z,103085.84
2024-01-28T07:48:22.192Z,103082.28
2024-01-28T07:49:26.253Z,103071.69
2024-01-28T07:50:34.932Z,103075.88
2024-01-28T07:51:43.739Z,103075.75
2024-01-28T07:52:52.459Z,103079.16
2024-01-28T07:53:58.722Z,103082.47
2024-01-28T07:55:09.526Z,103080.75
2024-01-28T07:56:13.461Z,103083.22
2024-01-28T07:57:20.189Z,103084.00
2024-01-28T07:58:23.899Z,103077.13
2024-01-28T07:59:30.380Z,103087.38
2024-01-28T08:03:42.850Z,103080.88
2024-01-28T08:04:56.339Z,103092.97
2024-01-28T08:06:14.120Z,103089.44
2024-01-28T08:07:21.969Z,103096.19
2024-01-28T08:08:31.648Z,103084.94
2024-01-28T08:09:38.434Z,103095.38
2024-01-28T08:10:45.070Z,103095.44
2024-01-28T08:11:51.317Z,103092.69
2024-01-28T08:12:58.038Z,103098.69
2024-01-28T08:14:04.475Z,103090.94
2024-01-28T08:15:13.784Z,103089.91
2024-01-28T08:16:20.343Z,103098.69
2024-01-28T08:17:27.578Z,103094.34
2024-01-28T08:18:34.048Z,103097.84
2024-01-28T08:19:43.134Z,103084.06
2024-01-28T08:20:47.024Z,103087.47
2024-01-28T08:21:55.798Z,103082.38
2024-01-28T08:23:02.416Z,103077.13
2024-01-28T08:24:11.345Z,103078.91
2024-01-28T08:25:15.916Z,103084.06
2024-01-28T08:26:22.450Z,103073.72
2024-01-28T08:27:26.488Z,103078.91
2024-01-28T08:28:33.103Z,103073.56
2024-01-28T08:29:38.392Z,103071.06
2024-01-28T08:30:48.504Z,103077.13
2024-01-28T08:31:52.814Z,103083.19
2024-01-28T08:33:02.510Z,103078.91
2024-01-28T08:34:08.918Z,103083.28
2024-01-28T08:35:15.605Z,103087.53
2024-01-28T08:36:21.927Z,103079.75
2024-01-28T08:37:30.575Z,103077.13
2024-01-28T08:38:37.487Z,103084.06
2024-01-28T08:39:44.015Z,103077.19
2024-01-28T08:40:49.337Z,103093.47
2024-01-28T08:42:00.723Z,103082.34
2024-01-28T08:43:11.169Z,103077.25
2024-01-28T08:44:19.488Z,103085.09
2024-01-28T08:45:23.710Z,103086.88
2024-01-28T08:46:30.290Z,103084.38
2024-01-28T08:47:37.173Z,103092.16
2024-01-28T08:48:44.108Z,103097.34
2024-01-28T08:49:49.970Z,103095.66
2024-01-28T08:50:59.526Z,103100.00
2024-01-28T08:52:07.739Z,103101.81
2024-01-28T08:53:14.532Z,103104.47
2024-01-28T08:54:25.025Z,103102.81
2024-01-28T08:55:31.591Z,103104.47
2024-01-28T08:56:37.902Z,103100.25
2024-01-28T08:57:47.194Z,103105.47
2024-01-28T08:58:50.411Z,103105.50
2024-01-28T08:59:59.305Z,103103.75
2024-01-28T09:01:07.413Z,103103.75
2024-01-28T09:02:14.448Z,103112.47
2024-01-28T09:03:18.800Z,103104.75
2024-01-28T09:04:30.988Z,103100.50
2024-01-28T09:05:35.251Z,103095.31
2024-01-28T09:06:41.981Z,103092.84
2024-01-28T09:07:47.006Z,103085.06
2024-01-28T09:08:53.625Z,103078.16
2024-01-28T09:10:03.682Z,103076.41
2024-01-28T09:11:10.573Z,103077.38
2024-01-28T09:12:14.631Z,103076.56
2024-01-28T09:13:23.418Z,103076.56
2024-01-28T09:14:27.915Z,103069.66
2024-01-28T09:15:36.971Z,103071.38
2024-01-28T09:16:40.944Z,103078.34
2024-01-28T09:17:47.565Z,103076.69
2024-01-28T09:18:51.713Z,103082.81
2024-01-28T09:19:55.018Z,103082.88
2024-01-28T09:21:01.597Z,103091.53
2024-01-28T09:22:11.016Z,103083.78
2024-01-28T09:23:17.653Z,103085.53
2024-01-28T09:24:20.821Z,103083.75
2024-01-28T09:25:30.348Z,103090.78
2024-01-28T09:26:34.836Z,103090.81
2024-01-28T09:27:41.644Z,103088.97
2024-01-28T09:28:47.833Z,103086.50
2024-01-28T09:29:57.533Z,103094.31
2024-01-28T09:31:07.825Z,103092.66
2024-01-28T09:32:17.364Z,103088.28
2024-01-28T09:33:23.093Z,103096.97
2024-01-28T09:34:30.461Z,103100.50
2024-01-28T09:35:34.468Z,103102.25
2024-01-28T09:36:43.588Z,103104.84
2024-01-28T09:37:48.152Z,103104.06
2024-01-28T09:38:58.097Z,103101.47
2024-01-28T09:40:02.545Z,103103.22
2024-01-28T09:41:26.680Z,103114.44
2024-01-28T09:42:44.500Z,103110.19
2024-01-28T09:43:50.815Z,103112.00
2024-01-28T09:44:54.828Z,103114.63
2024-01-28T09:46:05.052Z,103114.66
2024-01-28T09:47:10.744Z,103123.28
2024-01-28T09:48:19.085Z,103123.38
2024-01-28T09:49:27.524Z,103117.38
2024-01-28T09:50:37.383Z,103113.16
2024-01-28T09:51:41.950Z,103111.41
2024-01-28T09:52:49.190Z,103098.50
2024-01-28T09:53:56.226Z,103095.03
2024-01-28T09:55:05.365Z,103093.34
2024-01-28T09:56:17.475Z,103092.47
2024-01-28T09:57:38.934Z,103086.41
2024-01-28T09:58:44.471Z,103089.03
2024-01-28T09:59:51.819Z,103082.13
2024-01-28T10:00:56.520Z,103079.53
2024-01-28T10:02:03.051Z,103078.69
2024-01-28T10:03:12.910Z,103083.94
2024-01-28T10:04:17.923Z,103077.97
2024-01-28T10:05:25.589Z,103075.47
2024-01-28T10:08:38.846Z,103073.06
2024-01-28T10:10:07.746Z,103071.44
2024-01-28T10:11:20.137Z,103070.66
2024-01-28T10:12:35.261Z,103073.34
2024-01-28T10:13:41.865Z,103062.19
2024-01-28T10:14:51.844Z,103074.34
2024-01-28T10:16:01.512Z,103066.63
2024-01-28T10:17:05.512Z,103075.34
2024-01-28T10:18:12.847Z,103079.75
2024-01-28T10:19:17.041Z,103067.69
2024-01-28T10:20:29.865Z,103066.03
2024-01-28T10:21:34.001Z,103076.50
2024-01-28T10:22:37.965Z,103072.25
2024-01-28T10:23:46.825Z,103076.59
2024-01-28T10:24:51.464Z,103073.19
2024-01-28T10:26:01.988Z,103068.91
2024-01-28T10:27:11.048Z,103067.19
2024-01-28T10:28:21.671Z,103062.03
2024-01-28T10:29:27.115Z,103065.50
2024-01-28T10:30:37.827Z,103053.44
2024-01-28T10:31:44.209Z,103053.47
2024-01-28T10:32:50.846Z,103045.72
2024-01-28T10:33:56.713Z,103055.28
2024-01-28T10:35:05.994Z,103050.13
2024-01-28T10:36:12.264Z,103052.72
2024-01-28T10:37:20.990Z,103047.53
2024-01-28T10:38:32.149Z,103035.38
2024-01-28T10:39:42.134Z,103051.88
2024-01-28T10:40:47.141Z,103042.34
2024-01-28T10:41:59.691Z,103043.19
2024-01-28T10:43:16.842Z,103048.44
2024-01-28T10:44:25.755Z,103048.47
2024-01-28T10:45:32.864Z,103051.94
2024-01-28T10:46:42.946Z,103049.34
2024-01-28T10:47:55.167Z,103051.94
2024-01-28T10:49:06.462Z,103051.97
2024-01-28T10:50:19.223Z,103038.97
2024-01-28T10:51:23.501Z,103042.44
2024-01-28T10:52:31.240Z,103040.69
2024-01-28T10:53:35.375Z,103039.84
2024-01-28T10:54:43.693Z,103038.97
2024-01-28T10:55:48.520Z,103035.50
2024-01-28T10:56:59.865Z,103031.16
2024-01-28T10:58:07.933Z,103031.13
2024-01-28T10:59:19.517Z,103032.88
2024-01-28T11:00:24.169Z,103035.47
2024-01-28T11:01:32.599Z,103039.81
2024-01-28T11:02:38.520Z,103042.41
2024-01-28T11:03:45.389Z,103038.91
2024-01-28T11:04:50.317Z,103033.69
2024-01-28T11:05:59.978Z,103038.91
2024-01-28T11:07:04.417Z,103024.09
2024-01-28T11:08:11.308Z,103016.25
2024-01-28T11:09:16.208Z,103019.72
2024-01-28T11:10:22.881Z,103017.97
2024-01-28T11:11:26.554Z,103015.34
2024-01-28T11:12:34.077Z,103021.44
2024-01-28T11:13:40.754Z,103031.84
2024-01-28T11:14:48.243Z,103025.75
2024-01-28T11:15:55.410Z,103023.13
2024-01-28T11:17:02.054Z,103023.09
2024-01-28T11:18:10.262Z,103021.31
2024-01-28T11:19:19.281Z,103011.72
2024-01-28T11:20:30.094Z,103010.88
2024-01-28T11:21:42.012Z,103013.53
2024-01-28T11:22:51.887Z,103006.59
2024-01-28T11:23:58.862Z,103005.72
2024-01-28T11:25:10.484Z,103008.25
2024-01-28T11:26:20.219Z,103000.44
2024-01-28T11:27:29.821Z,103003.91
2024-01-28T11:28:36.328Z,102994.41
2024-01-28T11:29:44.526Z,102991.72
2024-01-28T11:30:54.057Z,102989.88
2024-01-28T11:32:04.867Z,102992.38
2024-01-28T11:33:16.513Z,102990.69
2024-01-28T11:34:23.206Z,102992.50
2024-01-28T11:35:32.469Z,102994.19
2024-01-28T11:36:39.436Z,102992.44
2024-01-28T11:37:57.285Z,103001.88
2024-01-28T11:39:06.720Z,102993.03
2024-01-28T11:40:24.698Z,102992.19
2024-01-28T11:41:34.108Z,102981.75
2024-01-28T11:42:45.402Z,102983.47
2024-01-28T11:43:51.930Z,102987.66
2024-01-28T11:45:01.480Z,102983.16
2024-01-28T11:46:06.645Z,102989.94
2024-01-28T11:47:18.785Z,102988.06
2024-01-28T11:48:25.358Z,102981.91
2024-01-28T11:49:38.249Z,102977.47
2024-01-28T11:50:44.758Z,102976.66
2024-01-28T11:51:51.373Z,102972.22
2024-01-28T11:52:55.317Z,102969.50
2024-01-28T11:54:00.485Z,102970.34
2024-01-28T11:55:18.359Z,102962.38
2024-01-28T11:56:22.353Z,102964.03
2024-01-28T11:57:29.067Z,102956.22
2024-01-28T11:58:33.024Z,102963.13
2024-01-28T11:59:40.249Z,102958.75
2024-01-28T12:00:46.835Z,102961.22
2024-01-28T12:01:54.169Z,102955.16
2024-01-28T12:02:58.353Z,102959.63
2024-01-28T12:04:10.162Z,102962.25
2024-01-28T12:05:14.229Z,102955.91
2024-01-28T12:06:21.399Z,102950.97
2024-01-28T12:07:28.585Z,102946.63
2024-01-28T12:08:44.886Z,102948.31
2024-01-28T12:09:51.253Z,102942.06
2024-01-28T12:11:03.529Z,102943.72
2024-01-28T12:12:08.944Z,102941.84
2024-01-28T12:13:15.659Z,102944.19
2024-01-28T12:14:18.923Z,102934.66
2024-01-28T12:15:25.748Z,102941.69
2024-01-28T12:16:31.387Z,102936.53
2024-01-28T12:17:39.166Z,102944.25
2024-01-28T12:18:43.736Z,102944.03
2024-01-28T12:20:23.296Z,102951.63
2024-01-28T12:21:32.014Z,102948.16
2024-01-28T12:22:42.167Z,102948.28
2024-01-28T12:23:52.128Z,102949.78
2024-01-28T12:25:08.628Z,102942.78
2024-01-28T12:26:16.464Z,102947.06
2024-01-28T12:27:30.389Z,102939.34
2024-01-28T12:28:37.114Z,102946.34
2024-01-28T12:29:45.132Z,102935.09
2024-01-28T12:30:54.505Z,102943.06
2024-01-28T12:32:04.657Z,102939.56
2024-01-28T12:33:13.934Z,102934.25
2024-01-28T12:34:21.015Z,102936.91
2024-01-28T12:35:27.325Z,102931.66
2024-01-28T12:36:34.039Z,102933.53
2024-01-28T12:37:40.615Z,102932.59
2024-01-28T12:38:49.871Z,102935.34
2024-01-28T12:40:00.646Z,102928.31
2024-01-28T12:41:07.845Z,102923.03
2024-01-28T12:42:12.192Z,102930.06
2024-01-28T12:43:18.780Z,102920.69
2024-01-28T12:44:22.858Z,102923.16
2024-01-28T12:45:32.500Z,102925.81
2024-01-28T12:46:36.384Z,102924.22
2024-01-28T12:47:45.858Z,102916.41
2024-01-28T12:48:52.595Z,102921.03
2024-01-28T12:49:58.782Z,102918.53
2024-01-28T12:51:08.590Z,102916.06
2024-01-28T12:52:15.421Z,102906.41
2024-01-28T12:53:22.448Z,102914.44
2024-01-28T12:54:31.600Z,102911.78
2024-01-28T12:55:35.793Z,102904.94
2024-01-28T12:56:42.396Z,102904.88
2024-01-28T12:57:46.456Z,102897.03
2024-01-28T12:58:53.524Z,102897.13
2024-01-28T12:59:57.699Z,102898.97